createdAt,value
2023-02-03T00:00:56.275Z,90.63
2023-02-03T00:03:22.747Z,90.63
2023-02-03T00:05:49.342Z,90.68
2023-02-03T00:08:18.478Z,90.75
2023-02-03T00:10:45.226Z,90.55
2023-02-03T00:13:11.777Z,90.49
2023-02-03T00:15:38.134Z,90.65
2023-02-03T00:18:04.514Z,90.65
2023-02-03T00:20:30.884Z,90.45
2023-02-03T00:23:08.451Z,90.37
2023-02-03T00:25:35.565Z,90.37
2023-02-03T00:28:02.085Z,90.28
2023-02-03T00:30:28.868Z,90.41
2023-02-03T00:32:55.528Z,90.26
2023-02-03T00:35:22.908Z,90.26
2023-02-03T00:37:56.600Z,90.55
2023-02-03T00:40:25.779Z,90.30
2023-02-03T00:42:52.642Z,90.35
2023-02-03T00:45:19.289Z,90.32
2023-02-03T00:47:45.721Z,90.34
2023-02-03T00:50:12.318Z,89.96
2023-02-03T00:52:38.801Z,89.79
2023-02-03T00:55:05.970Z,90.04
2023-02-03T00:57:32.724Z,89.83
2023-02-03T00:59:59.146Z,89.73
2023-02-03T01:02:25.626Z,89.75
2023-02-03T01:04:52.043Z,89.66
2023-02-03T01:07:18.708Z,89.66
2023-02-03T01:09:45.226Z,89.52
2023-02-03T01:12:11.577Z,89.43
2023-02-03T01:14:37.991Z,89.19
2023-02-03T01:17:04.695Z,89.13
2023-02-03T01:19:31.119Z,89.07
2023-02-03T01:21:57.812Z,89.14
2023-02-03T01:24:24.350Z,89.14
2023-02-03T01:26:50.753Z,89.19
2023-02-03T01:29:17.124Z,89.17
2023-02-03T01:31:44.863Z,89.07
2023-02-03T01:34:14.439Z,88.95
2023-02-03T01:36:40.911Z,88.99
2023-02-03T01:39:07.395Z,88.90
2023-02-03T01:41:36.624Z,88.99
2023-02-03T01:44:34.740Z,88.81
2023-02-03T01:47:02.606Z,88.60
2023-02-03T01:49:37.088Z,88.61
2023-02-03T01:52:04.860Z,88.54
2023-02-03T01:54:41.094Z,88.72
2023-02-03T01:57:17.124Z,88.40
2023-02-03T01:59:44.267Z,88.08
2023-02-03T02:02:12.528Z,87.60
2023-02-03T02:04:56.569Z,87.51
2023-02-03T02:07:24.074Z,87.26
2023-02-03T02:09:50.627Z,87.15
2023-02-03T02:12:17.011Z,86.93
2023-02-03T02:14:44.528Z,87.17
2023-02-03T02:17:21.850Z,87.18
2023-02-03T02:20:09.732Z,87.27
2023-02-03T02:22:51.247Z,87.14
2023-02-03T02:25:54.906Z,87.13
2023-02-03T02:28:42.233Z,87.09
2023-02-03T02:31:33.328Z,87.04
2023-02-03T02:34:17.737Z,87.22
2023-02-03T02:37:13.387Z,87.14
2023-02-03T02:39:55.970Z,87.14
2023-02-03T02:42:43.987Z,87.08
2023-02-03T02:45:23.846Z,87.13
2023-02-03T02:47:52.181Z,86.88
2023-02-03T02:50:25.496Z,86.89
2023-02-03T02:52:53.040Z,86.74
2023-02-03T02:55:27.812Z,86.95
2023-02-03T02:57:57.929Z,87.13
2023-02-03T03:00:25.366Z,86.98
2023-02-03T03:02:51.900Z,86.87
2023-02-03T03:05:18.752Z,86.58
2023-02-03T03:07:53.482Z,86.69
2023-02-03T03:10:25.421Z,86.34
2023-02-03T03:12:57.101Z,86.65
2023-02-03T03:15:28.234Z,86.66
2023-02-03T03:18:30.755Z,86.79
2023-02-03T03:21:05.913Z,86.63
2023-02-03T03:23:39.275Z,86.85
2023-02-03T03:26:36.252Z,86.76
2023-02-03T03:29:32.017Z,86.68
2023-02-03T03:31:58.570Z,86.47
2023-02-03T03:34:25.098Z,86.62
2023-02-03T03:37:12.675Z,86.55
2023-02-03T03:39:56.183Z,86.31
2023-02-03T03:42:32.191Z,86.42
2023-02-03T03:45:10.668Z,86.40
2023-02-03T03:47:49.842Z,86.55
2023-02-03T03:50:21.582Z,86.56
2023-02-03T03:52:49.945Z,86.70
2023-02-03T03:55:19.493Z,86.69
2023-02-03T03:57:58.925Z,86.83
2023-02-03T04:00:29.470Z,86.74
2023-02-03T04:02:59.690Z,86.59
2023-02-03T04:05:26.870Z,86.37
2023-02-03T04:07:53.255Z,86.48
2023-02-03T04:10:27.743Z,86.22
2023-02-03T04:12:54.207Z,86.34
2023-02-03T04:15:20.581Z,86.25
2023-02-03T04:17:47.255Z,86.45
2023-02-03T04:20:14.645Z,86.21
2023-02-03T04:22:41.172Z,86.24
2023-02-03T04:25:07.793Z,86.28
2023-02-03T04:27:34.748Z,86.16
2023-02-03T04:30:01.084Z,86.21
2023-02-03T04:32:27.505Z,85.90
2023-02-03T04:34:54.010Z,85.78
2023-02-03T04:37:23.023Z,85.45
2023-02-03T04:39:52.081Z,85.47
2023-02-03T04:42:18.947Z,85.55
2023-02-03T04:44:45.262Z,85.46
2023-02-03T04:47:11.622Z,85.70
2023-02-03T04:49:38.009Z,85.67
2023-02-03T04:52:04.806Z,85.64
2023-02-03T04:54:31.187Z,85.84
2023-02-03T04:56:57.594Z,85.55
2023-02-03T04:59:24.276Z,85.60
2023-02-03T05:01:50.608Z,85.79
2023-02-03T05:04:17.079Z,85.43
2023-02-03T05:06:43.537Z,85.36
2023-02-03T05:09:10.320Z,85.46
2023-02-03T05:11:37.020Z,85.42
2023-02-03T05:14:03.655Z,85.94
2023-02-03T05:16:30.169Z,85.95
2023-02-03T05:18:56.560Z,85.46
2023-02-03T05:21:22.936Z,85.65
2023-02-03T05:23:49.501Z,85.31
2023-02-03T05:26:15.994Z,85.21
2023-02-03T05:28:42.343Z,85.29
2023-02-03T05:31:08.945Z,85.07
2023-02-03T05:33:35.569Z,85.09
2023-02-03T05:36:02.033Z,85.01
2023-02-03T05:38:28.607Z,84.92
2023-02-03T05:41:13.482Z,84.71
2023-02-03T05:43:39.929Z,84.63
2023-02-03T05:46:07.445Z,84.54
2023-02-03T05:48:34.403Z,84.44
2023-02-03T05:51:00.816Z,84.76
2023-02-03T05:53:27.557Z,84.73
2023-02-03T05:55:54.254Z,84.68
2023-02-03T05:58:20.639Z,84.41
2023-02-03T06:00:47.241Z,84.58
2023-02-03T06:03:13.675Z,84.52
2023-02-03T06:05:41.276Z,84.61
2023-02-03T06:08:08.520Z,84.54
2023-02-03T06:10:34.933Z,84.83
2023-02-03T06:13:09.974Z,84.63
2023-02-03T06:15:36.520Z,84.48
2023-02-03T06:18:03.109Z,84.48
2023-02-03T06:20:30.682Z,84.82
2023-02-03T06:22:57.079Z,84.41
2023-02-03T06:25:24.243Z,84.37
2023-02-03T06:27:51.227Z,84.61
2023-02-03T06:30:17.849Z,84.35
2023-02-03T06:32:46.842Z,84.72
2023-02-03T06:35:13.677Z,84.60
2023-02-03T06:37:40.182Z,84.53
2023-02-03T06:40:07.834Z,84.60
2023-02-03T06:42:34.179Z,84.67
2023-02-03T06:45:00.581Z,84.55
2023-02-03T06:47:26.980Z,84.48
2023-02-03T06:49:53.415Z,84.56
2023-02-03T06:52:21.828Z,84.22
2023-02-03T06:54:48.352Z,84.42
2023-02-03T06:57:14.921Z,84.54
2023-02-03T06:59:41.431Z,84.50
2023-02-03T07:02:07.803Z,84.61
2023-02-03T07:04:34.282Z,84.61
2023-02-03T07:07:00.634Z,84.28
2023-02-03T07:09:26.963Z,84.41
2023-02-03T07:11:53.355Z,84.39
2023-02-03T07:14:19.746Z,84.32
2023-02-03T07:16:46.070Z,84.43
2023-02-03T07:19:12.661Z,84.45
2023-02-03T07:21:38.996Z,84.70
2023-02-03T07:24:05.505Z,84.58
2023-02-03T07:26:31.912Z,84.62
2023-02-03T07:29:00.861Z,84.53
2023-02-03T07:31:27.723Z,84.67
2023-02-03T07:33:54.136Z,85.03
2023-02-03T07:36:20.552Z,84.62
2023-02-03T07:38:46.899Z,84.91
2023-02-03T07:41:13.272Z,84.76
2023-02-03T07:43:39.642Z,85.18
2023-02-03T07:46:06.093Z,85.09
2023-02-03T07:48:32.460Z,85.11
2023-02-03T07:50:59.011Z,84.92
2023-02-03T07:53:25.416Z,85.02
2023-02-03T07:55:51.884Z,85.14
2023-02-03T07:58:18.191Z,85.44
2023-02-03T08:00:44.887Z,85.29
2023-02-03T08:03:11.490Z,85.19
2023-02-03T08:05:37.883Z,85.37
2023-02-03T08:08:04.445Z,85.55
2023-02-03T08:10:31.145Z,85.39
2023-02-03T08:12:57.805Z,85.31
2023-02-03T08:15:24.433Z,85.31
2023-02-03T08:17:50.927Z,85.32
2023-02-03T08:20:17.973Z,85.40
2023-02-03T08:22:44.845Z,85.27
2023-02-03T08:25:13.181Z,85.46
2023-02-03T08:27:39.773Z,85.42
2023-02-03T08:30:08.220Z,85.35
2023-02-03T08:32:34.892Z,85.48
2023-02-03T08:35:03.061Z,85.51
2023-02-03T08:37:32.371Z,85.73
2023-02-03T08:40:00.215Z,85.54
2023-02-03T08:42:26.852Z,85.63
2023-02-03T08:44:53.237Z,85.52
2023-02-03T08:47:19.588Z,85.63
2023-02-03T08:49:46.005Z,85.36
2023-02-03T08:52:13.368Z,85.12
2023-02-03T08:54:40.009Z,85.20
2023-02-03T08:57:06.539Z,85.34
2023-02-03T08:59:36.078Z,85.16
2023-02-03T09:02:04.523Z,84.96
2023-02-03T09:04:33.202Z,85.34
2023-02-03T09:07:00.887Z,85.21
2023-02-03T09:09:29.131Z,85.41
2023-02-03T09:12:02.025Z,85.04
2023-02-03T09:14:35.358Z,85.19
2023-02-03T09:17:03.392Z,84.93
2023-02-03T09:19:30.734Z,84.76
2023-02-03T09:21:57.818Z,84.83
2023-02-03T09:24:24.625Z,84.45
2023-02-03T09:26:51.252Z,84.68
2023-02-03T09:29:17.750Z,84.98
2023-02-03T09:31:44.157Z,84.79
2023-02-03T09:34:10.643Z,84.89
2023-02-03T09:36:37.600Z,84.29
2023-02-03T09:39:04.256Z,84.39
2023-02-03T09:41:57.377Z,84.46
2023-02-03T09:44:35.048Z,84.48
2023-02-03T09:47:09.311Z,84.60
2023-02-03T09:49:41.077Z,84.33
2023-02-03T09:52:19.357Z,84.50
2023-02-03T09:55:09.740Z,84.45
2023-02-03T09:57:43.721Z,84.28
2023-02-03T10:00:31.412Z,84.18
2023-02-03T10:03:00.963Z,84.44
2023-02-03T10:05:30.317Z,84.23
2023-02-03T10:08:01.900Z,84.26
2023-02-03T10:11:09.548Z,84.13
2023-02-03T10:14:08.021Z,84.39
2023-02-03T10:16:58.530Z,83.88
2023-02-03T10:19:37.194Z,83.86
2023-02-03T10:22:05.761Z,84.24
2023-02-03T10:24:44.960Z,84.30
2023-02-03T10:27:21.894Z,83.73
2023-02-03T10:29:56.803Z,84.13
2023-02-03T10:32:24.664Z,84.23
2023-02-03T10:34:50.981Z,83.84
2023-02-03T10:37:30.940Z,84.00
2023-02-03T10:39:59.771Z,83.64
2023-02-03T10:42:47.074Z,83.97
2023-02-03T10:45:13.421Z,83.77
2023-02-03T10:47:46.646Z,83.85
2023-02-03T10:50:16.998Z,83.93
2023-02-03T10:52:43.448Z,83.81
2023-02-03T10:55:22.818Z,83.85
2023-02-03T10:57:50.174Z,83.98
2023-02-03T11:00:21.969Z,83.86
2023-02-03T11:03:15.427Z,83.77
2023-02-03T11:05:43.418Z,83.68
2023-02-03T11:08:16.039Z,83.67
2023-02-03T11:10:43.783Z,83.29
2023-02-03T11:13:25.181Z,83.54
2023-02-03T11:16:06.897Z,83.64
2023-02-03T11:18:50.812Z,83.04
2023-02-03T11:21:26.915Z,83.89
2023-02-03T11:24:23.081Z,83.43
2023-02-03T11:26:57.697Z,83.79
2023-02-03T11:29:28.321Z,83.73
2023-02-03T11:31:57.057Z,83.78
2023-02-03T11:34:38.110Z,83.79
2023-02-03T11:37:28.665Z,83.85
2023-02-03T11:40:07.114Z,83.99
2023-02-03T11:42:44.923Z,83.93
2023-02-03T11:45:17.624Z,84.29
2023-02-03T11:47:57.187Z,84.12
2023-02-03T11:50:43.735Z,83.90
2023-02-03T11:53:26.666Z,84.51
2023-02-03T11:55:55.987Z,84.28
2023-02-03T11:58:44.617Z,84.19
2023-02-03T12:01:23.813Z,84.53
2023-02-03T12:04:02.026Z,84.29
2023-02-03T12:06:40.532Z,84.42
2023-02-03T12:09:43.341Z,84.32
2023-02-03T12:12:26.510Z,84.40
2023-02-03T12:15:11.413Z,84.71
2023-02-03T12:17:57.628Z,84.90
2023-02-03T12:20:42.664Z,84.35
2023-02-03T12:23:14.928Z,84.66
2023-02-03T12:25:48.024Z,85.09
2023-02-03T12:28:41.341Z,85.22
2023-02-03T12:31:16.138Z,85.82
2023-02-03T12:33:49.162Z,85.63
2023-02-03T12:36:24.810Z,86.06
2023-02-03T12:39:06.587Z,86.40
2023-02-03T12:41:38.235Z,86.58
2023-02-03T12:44:21.999Z,86.88
2023-02-03T12:47:24.961Z,87.25
2023-02-03T12:49:57.737Z,87.33
2023-02-03T12:52:31.420Z,87.47
2023-02-03T12:55:31.416Z,87.95
2023-02-03T12:58:27.206Z,87.71
2023-02-03T13:01:03.478Z,87.82
2023-02-03T13:03:38.971Z,88.28
2023-02-03T13:06:33.674Z,87.84
2023-02-03T13:09:27.543Z,88.04
2023-02-03T13:12:05.580Z,88.27
2023-02-03T13:14:38.319Z,88.12
2023-02-03T13:17:34.326Z,88.08
2023-02-03T13:20:13.794Z,87.82
2023-02-03T13:22:40.186Z,87.64
2023-02-03T13:25:15.443Z,87.73
2023-02-03T13:28:16.718Z,87.54
2023-02-03T13:31:01.443Z,87.74
2023-02-03T13:33:52.217Z,87.28
2023-02-03T13:36:50.186Z,86.74
2023-02-03T13:39:25.073Z,87.12
2023-02-03T13:41:55.219Z,86.95
2023-02-03T13:44:30.638Z,86.72
2023-02-03T13:46:59.205Z,86.88
2023-02-03T13:49:29.520Z,86.39
2023-02-03T13:51:56.329Z,86.31
2023-02-03T13:54:43.811Z,85.71
2023-02-03T13:57:35.497Z,85.95
2023-02-03T14:00:05.544Z,85.46
2023-02-03T14:03:01.750Z,85.18
2023-02-03T14:05:49.206Z,85.32
2023-02-03T14:08:27.798Z,85.27
2023-02-03T14:11:31.687Z,84.60
2023-02-03T14:14:07.779Z,84.22
2023-02-03T14:16:38.981Z,83.92
2023-02-03T14:19:09.836Z,83.81
2023-02-03T14:21:51.611Z,83.06
2023-02-03T14:24:19.546Z,83.10
2023-02-03T14:26:50.373Z,82.70
2023-02-03T14:29:27.436Z,82.89
2023-02-03T14:31:58.499Z,82.35
2023-02-03T14:34:45.842Z,81.71
2023-02-03T14:37:23.379Z,81.27
2023-02-03T14:40:11.389Z,81.03
2023-02-03T14:43:13.286Z,80.99
2023-02-03T14:45:48.946Z,81.40
2023-02-03T14:48:18.662Z,79.94
2023-02-03T14:50:52.125Z,80.43
2023-02-03T14:53:24.298Z,79.77
2023-02-03T14:56:05.056Z,80.08
2023-02-03T14:58:44.527Z,80.65
2023-02-03T15:01:42.987Z,80.31
2023-02-03T15:04:16.141Z,78.94
2023-02-03T15:06:45.697Z,79.48
2023-02-03T15:09:45.303Z,80.10
2023-02-03T15:12:28.659Z,80.42
2023-02-03T15:15:45.062Z,80.43
2023-02-03T15:18:28.400Z,80.30
2023-02-03T15:20:55.744Z,80.43
2023-02-03T15:23:31.081Z,80.24
2023-02-03T15:26:12.537Z,80.44
2023-02-03T15:28:39.035Z,80.59
2023-02-03T15:31:14.615Z,80.57
2023-02-03T15:33:45.395Z,81.21
2023-02-03T15:36:22.172Z,81.67
2023-02-03T15:38:55.770Z,82.30
2023-02-03T15:41:24.830Z,82.58
2023-02-03T15:44:02.802Z,82.85
2023-02-03T15:46:40.719Z,83.00
2023-02-03T15:49:19.698Z,82.95
2023-02-03T15:51:56.827Z,82.92
2023-02-03T15:54:32.914Z,82.82
2023-02-03T15:57:07.110Z,83.23
2023-02-03T15:59:42.562Z,83.25
2023-02-03T16:02:22.756Z,83.46
2023-02-03T16:04:50.485Z,83.38
2023-02-03T16:07:21.523Z,83.46
2023-02-03T16:09:51.478Z,83.77
2023-02-03T16:12:33.632Z,83.64
2023-02-03T16:15:01.888Z,83.58
2023-02-03T16:17:39.263Z,83.33
2023-02-03T16:20:11.654Z,83.51
2023-02-03T16:22:44.279Z,83.25
2023-02-03T16:25:25.390Z,83.40
2023-02-03T16:28:36.562Z,83.61
2023-02-03T16:31:32.660Z,83.13
2023-02-03T16:34:32.105Z,82.78
2023-02-03T16:37:18.151Z,83.24
2023-02-03T16:40:02.712Z,83.29
2023-02-03T16:42:59.139Z,83.43
2023-02-03T16:45:44.428Z,83.19
2023-02-03T16:48:31.995Z,82.95
2023-02-03T16:51:05.102Z,83.05
2023-02-03T16:53:33.083Z,82.77
2023-02-03T16:56:02.047Z,82.79
2023-02-03T16:58:28.736Z,82.53
2023-02-03T17:00:57.384Z,82.94
2023-02-03T17:03:28.389Z,82.79
2023-02-03T17:05:58.032Z,82.77
2023-02-03T17:08:26.283Z,82.23
2023-02-03T17:10:52.724Z,82.68
2023-02-03T17:13:21.317Z,83.11
2023-02-03T17:15:50.434Z,83.08
2023-02-03T17:18:16.961Z,82.58
2023-02-03T17:20:44.243Z,82.65
2023-02-03T17:23:11.525Z,82.87
2023-02-03T17:25:39.151Z,83.04
2023-02-03T17:28:07.822Z,83.01
2023-02-03T17:30:35.501Z,82.98
2023-02-03T17:33:12.995Z,83.34
2023-02-03T17:35:44.924Z,83.10
2023-02-03T17:38:13.184Z,83.33
2023-02-03T17:54:24.217Z,84.18
2023-02-03T17:56:52.291Z,84.31
2023-02-03T17:59:18.682Z,84.35
2023-02-03T18:01:46.702Z,84.37
2023-02-03T18:04:13.118Z,84.55
2023-02-03T18:06:39.582Z,84.76
2023-02-03T18:09:08.970Z,84.94
2023-02-03T18:11:36.551Z,85.15
2023-02-03T18:14:05.225Z,84.99
2023-02-03T18:16:34.717Z,84.93
2023-02-03T18:19:02.942Z,84.98
2023-02-03T18:21:32.109Z,84.88
2023-02-03T18:24:01.933Z,84.90
2023-02-03T18:26:32.784Z,84.94
2023-02-03T18:28:59.095Z,84.87
2023-02-03T18:31:25.641Z,85.01
2023-02-03T18:33:53.443Z,84.89
2023-02-03T18:36:20.767Z,84.78
2023-02-03T18:38:48.197Z,84.85
2023-02-03T18:41:16.097Z,84.68
2023-02-03T18:43:43.105Z,84.37
2023-02-03T18:46:14.420Z,84.43
2023-02-03T18:48:40.769Z,84.23
2023-02-03T18:51:12.719Z,84.07
2023-02-03T18:53:39.257Z,84.00
2023-02-03T18:56:09.793Z,83.66
2023-02-03T18:58:39.484Z,83.54
2023-02-03T19:01:06.360Z,83.28
2023-02-03T19:03:33.813Z,83.38
2023-02-03T19:06:00.353Z,83.45
2023-02-03T19:08:26.855Z,83.27
2023-02-03T19:10:54.516Z,83.25
2023-02-03T19:13:24.702Z,83.29
2023-02-03T19:15:51.551Z,83.36
2023-02-03T19:18:17.882Z,83.38
2023-02-03T19:20:44.496Z,83.47
2023-02-03T19:23:14.402Z,83.47
2023-02-03T19:25:40.745Z,83.31
2023-02-03T19:28:14.332Z,83.33
2023-02-03T19:30:43.925Z,83.53
2023-02-03T19:33:10.614Z,83.53
2023-02-03T19:35:36.966Z,83.73
2023-02-03T19:38:03.306Z,83.92
2023-02-03T19:40:30.054Z,84.07
2023-02-03T19:42:58.008Z,84.01
2023-02-03T19:45:24.365Z,84.06
2023-02-03T19:47:52.506Z,84.23
2023-02-03T19:50:19.367Z,84.48
2023-02-03T19:52:47.147Z,84.64
2023-02-03T19:55:14.138Z,84.93
2023-02-03T19:57:40.539Z,84.72
2023-02-03T20:00:07.528Z,84.76
2023-02-03T20:02:34.099Z,84.68
2023-02-03T20:05:00.495Z,84.94
2023-02-03T20:07:30.009Z,84.95
2023-02-03T20:09:56.605Z,85.04
2023-02-03T20:12:23.009Z,85.13
2023-02-03T20:14:49.598Z,85.08
2023-02-03T20:17:16.001Z,85.20
2023-02-03T20:19:42.389Z,85.29
2023-02-03T20:22:08.994Z,85.29
2023-02-03T20:24:35.627Z,85.42
2023-02-03T20:27:01.962Z,85.35
2023-02-03T20:29:28.272Z,85.36
2023-02-03T20:31:55.425Z,85.35
2023-02-03T20:34:23.039Z,85.18
2023-02-03T20:36:49.387Z,85.26
2023-02-03T20:39:19.545Z,85.13
2023-02-03T20:41:45.869Z,85.14
2023-02-03T20:44:13.078Z,85.30
2023-02-03T20:46:40.600Z,85.37
2023-02-03T20:49:12.454Z,85.24
2023-02-03T20:51:38.810Z,85.29
2023-02-03T20:54:16.533Z,85.24
2023-02-03T20:56:43.258Z,85.09
2023-02-03T20:59:11.514Z,85.08
2023-02-03T21:01:38.255Z,85.09
2023-02-03T21:04:38.047Z,84.95
2023-02-03T21:07:13.769Z,84.92
2023-02-03T21:09:40.223Z,84.75
2023-02-03T21:12:12.096Z,84.71
2023-02-03T21:14:43.188Z,84.57
2023-02-03T21:17:23.803Z,84.50
2023-02-03T21:19:51.422Z,84.20
2023-02-03T21:22:26.746Z,84.16
2023-02-03T21:24:57.760Z,83.97
2023-02-03T21:27:26.907Z,83.96
2023-02-03T21:29:56.440Z,83.93
2023-02-03T21:32:43.966Z,83.99
2023-02-03T21:35:19.598Z,83.95
2023-02-03T21:37:45.924Z,83.31
2023-02-03T21:40:20.009Z,82.93
2023-02-03T21:42:46.779Z,82.67
2023-02-03T21:45:22.398Z,82.60
2023-02-03T21:47:52.373Z,82.51
2023-02-03T21:50:41.095Z,82.26
2023-02-03T21:53:07.341Z,82.34
2023-02-03T21:55:34.236Z,82.55
2023-02-03T21:58:19.918Z,82.58
2023-02-03T22:00:50.170Z,82.46
2023-02-03T22:03:25.892Z,82.50
2023-02-03T22:06:04.246Z,82.30
2023-02-03T22:08:33.989Z,82.34
2023-02-03T22:11:00.384Z,82.54
2023-02-03T22:13:26.831Z,82.53
2023-02-03T22:15:53.402Z,82.60
2023-02-03T22:18:19.738Z,82.65
2023-02-03T22:20:46.067Z,82.50
2023-02-03T22:23:12.762Z,82.92
2023-02-03T22:25:39.494Z,83.02
2023-02-03T22:28:06.263Z,83.08
2023-02-03T22:30:36.850Z,83.16
2023-02-03T22:33:05.027Z,83.34
2023-02-03T22:35:33.072Z,82.98
2023-02-03T22:37:59.444Z,83.01
2023-02-03T22:40:26.413Z,82.82
2023-02-03T22:42:53.605Z,83.00
2023-02-03T22:45:21.453Z,82.85
2023-02-03T22:47:47.803Z,82.63
2023-02-03T22:50:22.401Z,82.64
2023-02-03T22:52:59.004Z,82.51
2023-02-03T22:55:25.734Z,82.47
2023-02-03T22:57:52.533Z,82.71
2023-02-03T23:00:22.137Z,82.38
2023-02-03T23:02:48.835Z,82.56
2023-02-03T23:05:15.754Z,82.41
2023-02-03T23:07:44.406Z,82.31
2023-02-03T23:10:15.166Z,81.89
2023-02-03T23:12:42.415Z,81.50
2023-02-03T23:15:09.313Z,81.53
2023-02-03T23:17:35.662Z,81.79
2023-02-03T23:20:03.196Z,82.04
2023-02-03T23:22:29.572Z,82.13
2023-02-03T23:24:56.587Z,82.30
2023-02-03T23:27:22.914Z,82.17
2023-02-03T23:29:52.511Z,82.50
2023-02-03T23:32:18.957Z,82.62
2023-02-03T23:35:03.950Z,82.14
2023-02-03T23:37:30.264Z,82.27
2023-02-03T23:39:56.651Z,82.49
2023-02-03T23:42:23.334Z,82.28
2023-02-03T23:44:50.146Z,82.18
2023-02-03T23:47:16.490Z,82.39
2023-02-03T23:49:42.813Z,82.48
2023-02-03T23:52:12.884Z,82.50
2023-02-03T23:54:39.243Z,82.40
2023-02-03T23:57:05.938Z,82.66
2023-02-03T23:59:32.290Z,82.87
